DTTZ/TOE METAR and TAF weather

Enter ICAO airport designator
Station Type Date Time Source
DTTZ METAR 2021/04/13 23:00 UTC NOAA

DTTZ 132300Z 09018KT 8000 FEW033 18/08 Q1020 NOSIG


Station Type Date Time Source
DTTZ Decoded METAR 2021/04/13 23:00 UTC NOAA

Tozeur, Tunisia (DTTZ) 33-55N 008-06E 93M
Apr 13, 2021 - 07:00 PM EDT / 2021.04.13 2300 UTC
Wind: from the E (090 degrees) at 21 MPH (18 KT):0
Visibility: 4 mile(s):0
Sky conditions: mostly clear
Temperature: 64 F (18 C)
Dew Point: 46 F (8 C)
Relative Humidity: 51%
Pressure (altimeter): 30.12 in. Hg (1020 hPa)
ob: DTTZ 132300Z 09018KT 8000 FEW033 18/08 Q1020 NOSIG
cycle: 23

Station Type Date Time Source
DTTZ TAF 2021/04/13 18:50 UTC NOAA

TAF DTTZ 131700Z 1318/1418 27007KT 9999 FEW033
BECMG 1320/1322 10016KT
BECMG 1404/1406 09010KT
BECMG 1409/1411 14005KT

Example: see airport list